sensor_id;sensor_type;location;lat;lon;timestamp;pressure;altitude;pressure_sealevel;temperature;humidity
48668;BME280;34453;52.198;5.004;2023-11-19T00:01:22;98477.38;;;13.75;100.00
48668;BME280;34453;52.198;5.004;2023-11-19T00:03:48;98478.41;;;13.74;100.00
48668;BME280;34453;52.198;5.004;2023-11-19T00:06:14;98485.91;;;13.71;100.00
48668;BME280;34453;52.198;5.004;2023-11-19T00:08:39;98486.94;;;13.70;100.00
48668;BME280;34453;52.198;5.004;2023-11-19T00:11:05;98496.44;;;13.71;100.00
48668;BME280;34453;52.198;5.004;2023-11-19T00:13:30;98510.34;;;13.71;100.00
48668;BME280;34453;52.198;5.004;2023-11-19T00:15:55;98506.34;;;13.68;100.00
48668;BME280;34453;52.198;5.004;2023-11-19T00:18:21;98511.00;;;13.66;100.00
48668;BME280;34453;52.198;5.004;2023-11-19T00:20:47;98510.44;;;13.64;100.00
48668;BME280;34453;52.198;5.004;2023-11-19T00:23:12;98503.78;;;13.62;100.00
48668;BME280;34453;52.198;5.004;2023-11-19T00:25:38;98501.38;;;13.60;100.00
48668;BME280;34453;52.198;5.004;2023-11-19T00:28:04;98514.31;;;13.62;100.00
48668;BME280;34453;52.198;5.004;2023-11-19T00:30:29;98506.22;;;13.63;100.00
48668;BME280;34453;52.198;5.004;2023-11-19T00:32:56;98507.66;;;13.59;100.00
48668;BME280;34453;52.198;5.004;2023-11-19T00:35:21;98500.56;;;13.60;100.00
48668;BME280;34453;52.198;5.004;2023-11-19T00:37:47;98499.41;;;13.56;100.00
48668;BME280;34453;52.198;5.004;2023-11-19T00:40:13;98501.09;;;13.50;100.00
48668;BME280;34453;52.198;5.004;2023-11-19T00:42:40;98499.25;;;13.51;100.00
48668;BME280;34453;52.198;5.004;2023-11-19T00:45:05;98514.22;;;13.50;100.00
48668;BME280;34453;52.198;5.004;2023-11-19T00:47:34;98510.78;;;13.50;100.00
48668;BME280;34453;52.198;5.004;2023-11-19T00:50:00;98511.59;;;13.50;100.00
48668;BME280;34453;52.198;5.004;2023-11-19T00:52:25;98511.81;;;13.48;100.00
48668;BME280;34453;52.198;5.004;2023-11-19T00:54:50;98521.38;;;13.43;100.00
48668;BME280;34453;52.198;5.004;2023-11-19T00:57:16;98534.91;;;13.40;100.00
48668;BME280;34453;52.198;5.004;2023-11-19T00:59:42;98526.66;;;13.36;100.00
48668;BME280;34453;52.198;5.004;2023-11-19T01:02:07;98521.19;;;13.38;100.00
48668;BME280;34453;52.198;5.004;2023-11-19T01:04:35;98522.63;;;13.34;100.00
48668;BME280;34453;52.198;5.004;2023-11-19T01:07:01;98528.47;;;13.36;100.00
48668;BME280;34453;52.198;5.004;2023-11-19T01:09:27;98532.13;;;13.35;100.00
48668;BME280;34453;52.198;5.004;2023-11-19T01:11:53;98512.56;;;13.31;100.00
48668;BME280;34453;52.198;5.004;2023-11-19T01:14:18;98535.59;;;13.29;100.00
48668;BME280;34453;52.198;5.004;2023-11-19T01:16:44;98523.75;;;13.19;100.00
48668;BME280;34453;52.198;5.004;2023-11-19T01:19:09;98516.66;;;13.20;100.00
48668;BME280;34453;52.198;5.004;2023-11-19T01:21:35;98516.31;;;13.16;100.00
48668;BME280;34453;52.198;5.004;2023-11-19T01:24:01;98524.38;;;13.15;100.00
48668;BME280;34453;52.198;5.004;2023-11-19T01:26:28;98519.50;;;13.18;100.00
48668;BME280;34453;52.198;5.004;2023-11-19T01:28:53;98527.38;;;13.18;100.00
48668;BME280;34453;52.198;5.004;2023-11-19T01:31:18;98524.34;;;13.21;100.00
48668;BME280;34453;52.198;5.004;2023-11-19T01:33:44;98531.63;;;13.19;100.00
48668;BME280;34453;52.198;5.004;2023-11-19T01:36:12;98529.44;;;13.16;100.00
48668;BME280;34453;52.198;5.004;2023-11-19T01:38:38;98538.75;;;13.12;100.00
48668;BME280;34453;52.198;5.004;2023-11-19T01:41:03;98546.81;;;13.11;100.00
48668;BME280;34453;52.198;5.004;2023-11-19T01:43:32;98561.78;;;13.10;100.00
48668;BME280;34453;52.198;5.004;2023-11-19T01:45:58;98561.63;;;13.05;100.00
48668;BME280;34453;52.198;5.004;2023-11-19T01:48:23;98578.22;;;12.99;100.00
48668;BME280;34453;52.198;5.004;2023-11-19T01:50:49;98568.94;;;12.96;100.00
48668;BME280;34453;52.198;5.004;2023-11-19T01:53:17;98587.50;;;12.95;100.00
48668;BME280;34453;52.198;5.004;2023-11-19T01:55:43;98585.94;;;12.87;100.00
48668;BME280;34453;52.198;5.004;2023-11-19T01:58:08;98596.66;;;12.85;100.00
48668;BME280;34453;52.198;5.004;2023-11-19T02:00:34;98595.50;;;12.75;100.00
48668;BME280;34453;52.198;5.004;2023-11-19T07:56:44;98942.25;;;11.90;100.00
48668;BME280;34453;52.198;5.004;2023-11-19T07:59:15;98939.84;;;11.95;100.00
48668;BME280;34453;52.198;5.004;2023-11-19T08:01:41;98951.09;;;11.89;100.00
48668;BME280;34453;52.198;5.004;2023-11-19T08:04:06;98939.44;;;11.92;100.00
48668;BME280;34453;52.198;5.004;2023-11-19T08:06:31;98931.78;;;11.90;100.00
48668;BME280;34453;52.198;5.004;2023-11-19T08:08:56;98934.75;;;11.87;100.00
48668;BME280;34453;52.198;5.004;2023-11-19T08:11:22;98934.41;;;11.90;100.00
48668;BME280;34453;52.198;5.004;2023-11-19T08:13:47;98929.34;;;11.89;100.00
48668;BME280;34453;52.198;5.004;2023-11-19T08:16:12;98936.22;;;11.90;100.00
48668;BME280;34453;52.198;5.004;2023-11-19T08:18:43;98938.00;;;11.89;100.00
48668;BME280;34453;52.198;5.004;2023-11-19T08:21:08;98945.50;;;11.92;100.00
48668;BME280;34453;52.198;5.004;2023-11-19T08:23:34;98945.09;;;11.95;100.00
48668;BME280;34453;52.198;5.004;2023-11-19T08:25:59;98941.47;;;11.96;100.00
48668;BME280;34453;52.198;5.004;2023-11-19T08:28:25;98945.31;;;12.00;100.00
48668;BME280;34453;52.198;5.004;2023-11-19T08:30:50;98952.78;;;12.03;100.00
48668;BME280;34453;52.198;5.004;2023-11-19T08:33:16;98945.91;;;12.02;100.00
48668;BME280;34453;52.198;5.004;2023-11-19T08:35:42;98951.59;;;12.06;100.00
48668;BME280;34453;52.198;5.004;2023-11-19T08:38:07;98939.28;;;12.07;100.00
48668;BME280;34453;52.198;5.004;2023-11-19T08:40:33;98949.97;;;12.05;100.00
48668;BME280;34453;52.198;5.004;2023-11-19T08:42:58;98948.16;;;12.06;100.00
48668;BME280;34453;52.198;5.004;2023-11-19T08:45:24;98955.63;;;12.09;100.00
48668;BME280;34453;52.198;5.004;2023-11-19T08:47:50;98954.41;;;12.11;100.00
48668;BME280;34453;52.198;5.004;2023-11-19T08:50:15;98954.41;;;12.11;100.00
48668;BME280;34453;52.198;5.004;2023-11-19T08:52:41;98957.06;;;12.18;100.00
48668;BME280;34453;52.198;5.004;2023-11-19T08:55:06;98955.84;;;12.20;100.00
48668;BME280;34453;52.198;5.004;2023-11-19T08:57:32;98944.19;;;12.23;100.00
48668;BME280;34453;52.198;5.004;2023-11-19T09:00:00;98961.34;;;12.26;100.00
48668;BME280;34453;52.198;5.004;2023-11-19T09:02:26;98954.88;;;12.28;100.00
48668;BME280;34453;52.198;5.004;2023-11-19T09:04:51;98963.97;;;12.32;100.00
48668;BME280;34453;52.198;5.004;2023-11-19T09:07:16;98967.22;;;12.34;100.00
48668;BME280;34453;52.198;5.004;2023-11-19T09:09:42;98958.75;;;12.39;100.00
48668;BME280;34453;52.198;5.004;2023-11-19T09:12:07;98967.22;;;12.41;100.00
48668;BME280;34453;52.198;5.004;2023-11-19T09:14:32;98967.84;;;12.43;100.00
48668;BME280;34453;52.198;5.004;2023-11-19T09:16:58;98953.50;;;12.46;100.00
48668;BME280;34453;52.198;5.004;2023-11-19T09:19:23;98969.03;;;12.47;100.00
48668;BME280;34453;52.198;5.004;2023-11-19T09:21:49;98977.72;;;12.48;100.00
48668;BME280;34453;52.198;5.004;2023-11-19T09:24:14;98974.09;;;12.49;100.00
48668;BME280;34453;52.198;5.004;2023-11-19T09:26:40;98963.00;;;12.53;100.00
48668;BME280;34453;52.198;5.004;2023-11-19T09:29:07;98972.69;;;12.53;100.00
48668;BME280;34453;52.198;5.004;2023-11-19T09:31:33;98972.50;;;12.54;100.00
48668;BME280;34453;52.198;5.004;2023-11-19T09:33:58;98980.38;;;12.61;100.00
48668;BME280;34453;52.198;5.004;2023-11-19T09:36:24;98976.34;;;12.65;100.00
48668;BME280;34453;52.198;5.004;2023-11-19T09:38:49;98990.88;;;12.61;100.00
48668;BME280;34453;52.198;5.004;2023-11-19T09:41:14;98991.47;;;12.63;100.00
48668;BME280;34453;52.198;5.004;2023-11-19T09:43:41;98983.00;;;12.61;100.00
48668;BME280;34453;52.198;5.004;2023-11-19T09:46:07;98979.34;;;12.62;100.00
48668;BME280;34453;52.198;5.004;2023-11-19T09:48:35;98982.19;;;12.67;100.00
48668;BME280;34453;52.198;5.004;2023-11-19T09:51:05;98976.75;;;12.69;100.00
48668;BME280;34453;52.198;5.004;2023-11-19T09:53:31;98984.63;;;12.75;100.00
48668;BME280;34453;52.198;5.004;2023-11-19T09:55:57;98991.09;;;12.79;100.00
48668;BME280;34453;52.198;5.004;2023-11-19T09:58:25;99009.03;;;12.82;100.00
48668;BME280;34453;52.198;5.004;2023-11-19T10:00:51;98997.16;;;12.86;100.00
48668;BME280;34453;52.198;5.004;2023-11-19T10:03:17;99003.19;;;12.80;100.00
48668;BME280;34453;52.198;5.004;2023-11-19T10:05:42;99003.00;;;12.82;100.00
48668;BME280;34453;52.198;5.004;2023-11-19T10:08:07;99009.47;;;12.79;100.00
48668;BME280;34453;52.198;5.004;2023-11-19T10:10:33;99004.03;;;12.81;100.00
48668;BME280;34453;52.198;5.004;2023-11-19T10:12:59;98999.38;;;12.83;100.00
48668;BME280;34453;52.198;5.004;2023-11-19T10:15:26;99004.03;;;12.88;100.00
48668;BME280;34453;52.198;5.004;2023-11-19T10:17:52;99016.31;;;12.87;100.00
48668;BME280;34453;52.198;5.004;2023-11-19T10:20:17;99009.66;;;12.98;100.00
48668;BME280;34453;52.198;5.004;2023-11-19T10:22:42;98990.69;;;13.02;100.00
48668;BME280;34453;52.198;5.004;2023-11-19T10:25:21;99013.94;;;13.05;100.00
48668;BME280;34453;52.198;5.004;2023-11-19T10:27:47;99012.72;;;13.08;100.00
48668;BME280;34453;52.198;5.004;2023-11-19T10:30:12;99011.91;;;13.07;100.00
48668;BME280;34453;52.198;5.004;2023-11-19T10:32:38;99023.81;;;12.97;100.00
48668;BME280;34453;52.198;5.004;2023-11-19T10:35:06;99042.16;;;12.70;100.00
48668;BME280;34453;52.198;5.004;2023-11-19T10:37:32;99034.06;;;12.58;100.00
48668;BME280;34453;52.198;5.004;2023-11-19T10:40:00;99031.63;;;12.57;100.00
48668;BME280;34453;52.198;5.004;2023-11-19T10:42:25;99019.13;;;12.59;100.00
48668;BME280;34453;52.198;5.004;2023-11-19T10:44:51;99013.91;;;12.72;100.00
48668;BME280;34453;52.198;5.004;2023-11-19T10:47:18;99001.78;;;12.84;100.00
48668;BME280;34453;52.198;5.004;2023-11-19T10:49:44;99018.38;;;12.98;100.00
48668;BME280;34453;52.198;5.004;2023-11-19T10:57:15;99031.28;;;13.26;100.00
48668;BME280;34453;52.198;5.004;2023-11-19T10:59:44;99022.81;;;13.31;100.00
48668;BME280;34453;52.198;5.004;2023-11-19T11:02:10;99039.19;;;13.53;100.00
48668;BME280;34453;52.198;5.004;2023-11-19T11:04:41;99066.47;;;13.52;100.00
48668;BME280;34453;52.198;5.004;2023-11-19T11:07:07;99053.72;;;13.49;100.00
48668;BME280;34453;52.198;5.004;2023-11-19T11:09:34;99058.59;;;13.52;100.00
48668;BME280;34453;52.198;5.004;2023-11-19T11:11:59;99072.72;;;13.51;100.00
48668;BME280;34453;52.198;5.004;2023-11-19T11:14:25;99070.69;;;13.60;100.00
48668;BME280;34453;52.198;5.004;2023-11-19T11:16:51;99073.72;;;13.70;100.00
48668;BME280;34453;52.198;5.004;2023-11-19T11:19:18;99110.53;;;13.63;100.00
48668;BME280;34453;52.198;5.004;2023-11-19T11:21:45;99086.09;;;13.56;100.00
48668;BME280;34453;52.198;5.004;2023-11-19T11:35:06;99089.09;;;13.53;100.00
48668;BME280;34453;52.198;5.004;2023-11-19T11:37:38;99079.81;;;13.51;100.00
48668;BME280;34453;52.198;5.004;2023-11-19T11:40:04;99111.53;;;13.56;100.00
48668;BME280;34453;52.198;5.004;2023-11-19T11:42:38;99101.25;;;13.54;100.00
48668;BME280;34453;52.198;5.004;2023-11-19T11:45:07;99095.97;;;13.54;100.00
48668;BME280;34453;52.198;5.004;2023-11-19T11:50:08;99092.75;;;13.52;100.00
48668;BME280;34453;52.198;5.004;2023-11-19T11:52:36;99089.09;;;13.53;100.00
48668;BME280;34453;52.198;5.004;2023-11-19T11:55:23;99081.41;;;13.45;100.00
48668;BME280;34453;52.198;5.004;2023-11-19T11:57:48;99069.50;;;13.49;100.00
48668;BME280;34453;52.198;5.004;2023-11-19T12:00:21;99057.38;;;13.55;100.00
48668;BME280;34453;52.198;5.004;2023-11-19T12:02:46;99038.97;;;13.68;100.00
48668;BME280;34453;52.198;5.004;2023-11-19T12:05:11;99048.25;;;13.71;100.00
48668;BME280;34453;52.198;5.004;2023-11-19T12:07:38;99041.78;;;13.66;100.00
48668;BME280;34453;52.198;5.004;2023-11-19T12:10:07;99032.69;;;13.69;100.00
48668;BME280;34453;52.198;5.004;2023-11-19T12:12:33;99037.75;;;13.64;100.00
48668;BME280;34453;52.198;5.004;2023-11-19T12:19:58;99033.31;;;13.51;100.00
48668;BME280;34453;52.198;5.004;2023-11-19T12:22:24;99025.88;;;13.41;100.00
48668;BME280;34453;52.198;5.004;2023-11-19T12:24:50;99024.66;;;13.44;100.00
48668;BME280;34453;52.198;5.004;2023-11-19T12:27:16;99039.19;;;13.40;100.00
48668;BME280;34453;52.198;5.004;2023-11-19T12:29:42;99030.50;;;13.39;100.00
48668;BME280;34453;52.198;5.004;2023-11-19T12:32:09;99029.91;;;13.37;100.00
48668;BME280;34453;52.198;5.004;2023-11-19T12:34:34;99044.63;;;13.38;100.00
48668;BME280;34453;52.198;5.004;2023-11-19T12:37:03;99049.88;;;13.32;100.00
48668;BME280;34453;52.198;5.004;2023-11-19T12:39:31;99054.56;;;13.30;100.00
48668;BME280;34453;52.198;5.004;2023-11-19T12:41:57;99087.88;;;13.29;100.00
48668;BME280;34453;52.198;5.004;2023-11-19T12:44:24;99069.72;;;13.34;100.00
48668;BME280;34453;52.198;5.004;2023-11-19T12:46:59;99072.13;;;13.36;100.00
48668;BME280;34453;52.198;5.004;2023-11-19T12:49:26;99096.38;;;13.38;100.00
48668;BME280;34453;52.198;5.004;2023-11-19T12:51:51;99097.78;;;13.34;100.00
48668;BME280;34453;52.198;5.004;2023-11-19T12:54:17;99102.84;;;13.29;100.00
48668;BME280;34453;52.198;5.004;2023-11-19T12:56:52;99128.66;;;13.25;100.00
48668;BME280;34453;52.198;5.004;2023-11-19T12:59:18;99110.88;;;13.20;100.00
48668;BME280;34453;52.198;5.004;2023-11-19T13:01:56;99093.91;;;13.16;100.00
48668;BME280;34453;52.198;5.004;2023-11-19T13:04:22;99105.19;;;12.97;100.00
48668;BME280;34453;52.198;5.004;2023-11-19T13:06:49;99103.09;;;12.72;100.00
48668;BME280;34453;52.198;5.004;2023-11-19T13:11:52;99076.66;;;12.80;100.00
48668;BME280;34453;52.198;5.004;2023-11-19T13:14:18;99109.31;;;12.64;100.00
48668;BME280;34453;52.198;5.004;2023-11-19T13:16:44;99066.22;;;12.32;100.00
48668;BME280;34453;52.198;5.004;2023-11-19T13:19:11;99050.91;;;12.36;100.00
48668;BME280;34453;52.198;5.004;2023-11-19T13:21:37;99035.63;;;12.53;100.00
48668;BME280;34453;52.198;5.004;2023-11-19T13:24:03;99020.72;;;12.60;100.00
48668;BME280;34453;52.198;5.004;2023-11-19T13:26:28;99017.13;;;12.68;100.00
48668;BME280;34453;52.198;5.004;2023-11-19T13:28:54;99015.91;;;12.70;100.00
48668;BME280;34453;52.198;5.004;2023-11-19T13:31:19;99004.59;;;12.56;100.00
48668;BME280;34453;52.198;5.004;2023-11-19T13:33:44;99002.72;;;12.43;100.00
48668;BME280;34453;52.198;5.004;2023-11-19T13:36:10;98992.84;;;12.46;100.00
48668;BME280;34453;52.198;5.004;2023-11-19T13:38:35;98981.00;;;12.63;100.00
48668;BME280;34453;52.198;5.004;2023-11-19T13:41:01;98975.94;;;12.68;100.00
48668;BME280;34453;52.198;5.004;2023-11-19T13:43:27;98979.97;;;12.77;100.00
48668;BME280;34453;52.198;5.004;2023-11-19T13:45:55;98983.03;;;12.88;100.00
48668;BME280;34453;52.198;5.004;2023-11-19T13:48:21;98984.44;;;12.90;100.00
48668;BME280;34453;52.198;5.004;2023-11-19T13:50:47;98975.75;;;12.90;100.00
48668;BME280;34453;52.198;5.004;2023-11-19T13:53:12;99000.00;;;12.92;100.00
48668;BME280;34453;52.198;5.004;2023-11-19T13:55:38;99003.44;;;12.99;100.00
48668;BME280;34453;52.198;5.004;2023-11-19T13:58:04;99004.22;;;12.99;100.00
48668;BME280;34453;52.198;5.004;2023-11-19T14:00:29;99024.19;;;13.00;100.00
48668;BME280;34453;52.198;5.004;2023-11-19T14:02:54;99016.13;;;13.02;100.00
48668;BME280;34453;52.198;5.004;2023-11-19T14:05:20;99011.06;;;13.00;100.00
48668;BME280;34453;52.198;5.004;2023-11-19T14:07:46;99006.25;;;13.04;100.00
48668;BME280;34453;52.198;5.004;2023-11-19T14:10:13;99020.41;;;13.03;100.00
48668;BME280;34453;52.198;5.004;2023-11-19T14:12:39;99025.84;;;13.01;100.00
48668;BME280;34453;52.198;5.004;2023-11-19T14:15:05;99005.63;;;13.02;100.00
48668;BME280;34453;52.198;5.004;2023-11-19T14:17:48;99018.56;;;12.97;100.00
48668;BME280;34453;52.198;5.004;2023-11-19T14:20:14;99000.38;;;12.95;100.00
48668;BME280;34453;52.198;5.004;2023-11-19T14:22:40;99002.63;;;12.92;100.00
48668;BME280;34453;52.198;5.004;2023-11-19T14:25:06;98988.47;;;12.93;100.00
48668;BME280;34453;52.198;5.004;2023-11-19T14:27:35;98976.38;;;12.92;100.00
48668;BME280;34453;52.198;5.004;2023-11-19T14:30:02;98998.56;;;12.89;100.00
48668;BME280;34453;52.198;5.004;2023-11-19T14:32:27;98998.97;;;12.93;100.00
48668;BME280;34453;52.198;5.004;2023-11-19T14:34:53;99007.03;;;12.91;100.00
48668;BME280;34453;52.198;5.004;2023-11-19T14:37:18;99005.81;;;12.94;100.00
48668;BME280;34453;52.198;5.004;2023-11-19T14:39:44;99001.59;;;12.86;100.00
48668;BME280;34453;52.198;5.004;2023-11-19T14:42:11;99008.06;;;12.83;100.00
48668;BME280;34453;52.198;5.004;2023-11-19T14:44:37;99005.81;;;12.80;100.00
48668;BME280;34453;52.198;5.004;2023-11-19T14:47:02;98998.97;;;12.79;100.00
48668;BME280;34453;52.198;5.004;2023-11-19T14:49:28;99008.44;;;12.80;100.00
48668;BME280;34453;52.198;5.004;2023-11-19T14:51:54;99005.81;;;12.80;100.00
48668;BME280;34453;52.198;5.004;2023-11-19T14:54:19;99011.06;;;12.80;100.00
48668;BME280;34453;52.198;5.004;2023-11-19T14:56:45;99000.56;;;12.74;100.00
48668;BME280;34453;52.198;5.004;2023-11-19T14:59:10;99007.44;;;12.75;100.00
48668;BME280;34453;52.198;5.004;2023-11-19T15:01:35;99000.56;;;12.74;100.00
48668;BME280;34453;52.198;5.004;2023-11-19T15:04:01;98997.94;;;12.74;100.00
48668;BME280;34453;52.198;5.004;2023-11-19T15:06:26;99019.94;;;12.73;100.00
48668;BME280;34453;52.198;5.004;2023-11-19T15:08:52;99002.19;;;12.75;100.00
48668;BME280;34453;52.198;5.004;2023-11-19T15:11:18;99004.63;;;12.76;100.00
48668;BME280;34453;52.198;5.004;2023-11-19T15:13:43;98996.53;;;12.71;100.00
48668;BME280;34453;52.198;5.004;2023-11-19T15:16:09;98991.69;;;12.68;100.00
48668;BME280;34453;52.198;5.004;2023-11-19T15:18:37;98978.97;;;12.72;100.00
48668;BME280;34453;52.198;5.004;2023-11-19T15:21:02;98991.50;;;12.70;100.00
48668;BME280;34453;52.198;5.004;2023-11-19T15:23:28;98993.91;;;12.71;100.00
48668;BME280;34453;52.198;5.004;2023-11-19T15:25:54;98988.03;;;12.69;100.00
48668;BME280;34453;52.198;5.004;2023-11-19T15:28:20;98992.50;;;12.75;100.00
48668;BME280;34453;52.198;5.004;2023-11-19T15:30:46;98984.63;;;12.75;100.00
48668;BME280;34453;52.198;5.004;2023-11-19T15:33:12;98991.28;;;12.78;100.00
48668;BME280;34453;52.198;5.004;2023-11-19T15:35:37;98995.13;;;12.75;100.00
48668;BME280;34453;52.198;5.004;2023-11-19T15:38:04;98998.94;;;12.73;100.00
48668;BME280;34453;52.198;5.004;2023-11-19T15:40:29;98991.28;;;12.78;100.00
48668;BME280;34453;52.198;5.004;2023-11-19T15:42:55;98992.50;;;12.75;100.00
48668;BME280;34453;52.198;5.004;2023-11-19T15:45:22;98998.16;;;12.72;100.00
48668;BME280;34453;52.198;5.004;2023-11-19T15:47:48;98990.06;;;12.80;100.00
48668;BME280;34453;52.198;5.004;2023-11-19T15:50:14;98985.22;;;12.77;100.00
48668;BME280;34453;52.198;5.004;2023-11-19T15:52:39;98983.63;;;12.76;100.00
48668;BME280;34453;52.198;5.004;2023-11-19T15:55:05;98969.91;;;12.74;100.00
48668;BME280;34453;52.198;5.004;2023-11-19T15:57:30;98963.81;;;12.67;100.00
48668;BME280;34453;52.198;5.004;2023-11-19T15:59:56;98970.69;;;12.68;100.00
48668;BME280;34453;52.198;5.004;2023-11-19T16:02:21;98958.19;;;12.70;100.00
48668;BME280;34453;52.198;5.004;2023-11-19T16:04:47;98963.00;;;12.67;100.00
48668;BME280;34453;52.198;5.004;2023-11-19T16:07:15;98948.69;;;12.69;100.00
48668;BME280;34453;52.198;5.004;2023-11-19T16:09:41;98965.63;;;12.67;100.00
48668;BME280;34453;52.198;5.004;2023-11-19T16:12:07;98959.59;;;12.66;100.00
48668;BME280;34453;52.198;5.004;2023-11-19T16:14:33;98960.59;;;12.58;100.00
48668;BME280;34453;52.198;5.004;2023-11-19T16:16:58;98948.88;;;12.54;100.00
48668;BME280;34453;52.198;5.004;2023-11-19T16:19:24;98979.75;;;12.46;100.00
48668;BME280;34453;52.198;5.004;2023-11-19T16:21:51;98937.53;;;12.40;100.00
48668;BME280;34453;52.198;5.004;2023-11-19T16:24:16;98943.00;;;12.32;100.00
48668;BME280;34453;52.198;5.004;2023-11-19T16:26:42;98931.47;;;12.27;100.00
48668;BME280;34453;52.198;5.004;2023-11-19T16:29:07;98927.22;;;12.19;100.00
48668;BME280;34453;52.198;5.004;2023-11-19T16:31:32;98919.75;;;12.16;100.00
48668;BME280;34453;52.198;5.004;2023-11-19T16:33:58;98915.53;;;12.15;100.00
48668;BME280;34453;52.198;5.004;2023-11-19T16:36:25;98903.63;;;12.12;100.00
48668;BME280;34453;52.198;5.004;2023-11-19T16:38:51;98910.88;;;12.10;100.00
48668;BME280;34453;52.198;5.004;2023-11-19T16:41:19;98889.91;;;12.10;100.00
48668;BME280;34453;52.198;5.004;2023-11-19T16:43:48;98874.19;;;12.10;100.00
48668;BME280;34453;52.198;5.004;2023-11-19T16:46:16;98864.50;;;12.11;100.00
48668;BME280;34453;52.198;5.004;2023-11-19T16:48:44;98866.13;;;12.12;100.00
48668;BME280;34453;52.198;5.004;2023-11-19T16:51:10;98858.44;;;12.10;100.00
48668;BME280;34453;52.198;5.004;2023-11-19T16:53:48;98844.75;;;12.08;100.00
48668;BME280;34453;52.198;5.004;2023-11-19T16:56:14;98846.94;;;12.05;100.00
48668;BME280;34453;52.198;5.004;2023-11-19T16:58:40;98856.00;;;12.02;100.00
48668;BME280;34453;52.198;5.004;2023-11-19T17:01:09;98828.38;;;11.93;100.00
48668;BME280;34453;52.198;5.004;2023-11-19T17:03:36;98816.06;;;11.93;100.00
48668;BME280;34453;52.198;5.004;2023-11-19T17:06:01;98814.84;;;11.89;100.00
48668;BME280;34453;52.198;5.004;2023-11-19T17:08:28;98798.50;;;11.87;100.00
48668;BME280;34453;52.198;5.004;2023-11-19T17:10:58;98773.72;;;11.83;100.00
48668;BME280;34453;52.198;5.004;2023-11-19T17:13:23;98771.47;;;11.80;100.00
48668;BME280;34453;52.198;5.004;2023-11-19T17:15:48;98753.56;;;11.77;100.00
48668;BME280;34453;52.198;5.004;2023-11-19T17:18:14;98737.41;;;11.73;100.00
48668;BME280;34453;52.198;5.004;2023-11-19T17:20:41;98728.16;;;11.71;100.00
48668;BME280;34453;52.198;5.004;2023-11-19T17:23:06;98705.78;;;11.68;100.00
48668;BME280;34453;52.198;5.004;2023-11-19T17:25:34;98692.69;;;11.68;100.00
48668;BME280;34453;52.198;5.004;2023-11-19T17:28:00;98669.72;;;11.70;100.00
48668;BME280;34453;52.198;5.004;2023-11-19T17:30:25;98678.00;;;11.74;100.00
48668;BME280;34453;52.198;5.004;2023-11-19T17:32:51;98656.81;;;11.75;100.00
48668;BME280;34453;52.198;5.004;2023-11-19T17:35:16;98621.78;;;11.76;100.00
48668;BME280;34453;52.198;5.004;2023-11-19T17:37:41;98616.31;;;11.78;100.00
48668;BME280;34453;52.198;5.004;2023-11-19T17:40:07;98610.88;;;11.79;100.00
48668;BME280;34453;52.198;5.004;2023-11-19T17:42:36;98595.16;;;11.79;100.00
48668;BME280;34453;52.198;5.004;2023-11-19T17:45:01;98589.91;;;11.79;100.00
48668;BME280;34453;52.198;5.004;2023-11-19T17:47:28;98578.84;;;11.77;100.00
48668;BME280;34453;52.198;5.004;2023-11-19T17:49:54;98574.19;;;11.73;100.00
48668;BME280;34453;52.198;5.004;2023-11-19T17:52:20;98559.50;;;11.72;100.00
48668;BME280;34453;52.198;5.004;2023-11-19T17:54:46;98547.59;;;11.76;100.00
48668;BME280;34453;52.198;5.004;2023-11-19T17:57:11;98521.63;;;11.74;100.00
48668;BME280;34453;52.198;5.004;2023-11-19T17:59:38;98514.13;;;11.78;100.00
48668;BME280;34453;52.198;5.004;2023-11-19T18:02:03;98516.75;;;11.78;100.00
48668;BME280;34453;52.198;5.004;2023-11-19T18:04:28;98513.31;;;11.84;100.00
48668;BME280;34453;52.198;5.004;2023-11-19T18:06:54;98500.81;;;11.86;100.00
48668;BME280;34453;52.198;5.004;2023-11-19T18:09:20;98489.94;;;11.89;100.00
48668;BME280;34453;52.198;5.004;2023-11-19T18:11:45;98501.03;;;11.91;100.00
48668;BME280;34453;52.198;5.004;2023-11-19T18:14:11;98476.06;;;11.89;100.00
48668;BME280;34453;52.198;5.004;2023-11-19T18:16:38;98494.38;;;11.95;100.00
48668;BME280;34453;52.198;5.004;2023-11-19T18:19:03;98482.31;;;11.94;100.00
48668;BME280;34453;52.198;5.004;2023-11-19T18:21:30;98491.16;;;11.93;100.00
48668;BME280;34453;52.198;5.004;2023-11-19T18:23:57;98472.19;;;11.98;100.00
48668;BME280;34453;52.198;5.004;2023-11-19T18:26:23;98492.56;;;11.96;100.00
48668;BME280;34453;52.198;5.004;2023-11-19T18:28:49;98469.16;;;12.01;100.00
48668;BME280;34453;52.198;5.004;2023-11-19T18:31:14;98481.44;;;12.00;100.00
48668;BME280;34453;52.198;5.004;2023-11-19T18:33:39;98481.44;;;12.00;100.00
48668;BME280;34453;52.198;5.004;2023-11-19T18:36:05;98487.72;;;11.99;100.00
48668;BME280;34453;52.198;5.004;2023-11-19T18:38:32;98482.47;;;11.99;100.00
48668;BME280;34453;52.198;5.004;2023-11-19T18:40:58;98494.53;;;12.00;100.00
48668;BME280;34453;52.198;5.004;2023-11-19T18:43:23;98480.25;;;12.03;100.00
48668;BME280;34453;52.198;5.004;2023-11-19T18:45:49;98472.59;;;12.01;100.00
48668;BME280;34453;52.198;5.004;2023-11-19T18:48:14;98483.50;;;11.98;100.00
48668;BME280;34453;52.198;5.004;2023-11-19T18:50:40;98460.09;;;12.03;100.00
48668;BME280;34453;52.198;5.004;2023-11-19T18:53:06;98473.56;;;12.07;100.00
48668;BME280;34453;52.198;5.004;2023-11-19T18:55:33;98459.44;;;12.15;100.00
48668;BME280;34453;52.198;5.004;2023-11-19T18:57:59;98466.84;;;12.18;100.00
48668;BME280;34453;52.198;5.004;2023-11-19T19:00:25;98466.47;;;12.21;100.00
48668;BME280;34453;52.198;5.004;2023-11-19T19:02:51;98488.66;;;12.18;100.00
48668;BME280;34453;52.198;5.004;2023-11-19T19:05:16;98462.22;;;12.20;100.00